Don't Get Lost in the Woods | Zone4.ca



Don't Get Lost in the Woods

Date: Sep 1, 2013
Official  Results
Location: Grande Prairie, Alberta
Host Club: Wapiti Nordic Ski Club 

Event Coordinators:  WNSC Race Team 
Race Director:  Joe Malmsten 
Chief of Course:  Jim Davis 
Chief of Timing:  Randy Hopkins 
Chief of Smooth Operations:  Jake Pruden 
Trail Monitors:   
 
Air Temp: Weather:

Masters Men 21kw 21 km. Mass Start    
PL Bib Name Overall Time Diff

Open Women 21kw 21 km. Mass Start    
PL Bib Name Overall Time Diff
1 220 Larisa Steigenberger 2/8 3:33:16.6  
2 221 Juanita Rowsell 4/8 3:34:01.6 +45.0
3 225 Lisa Kenney 5/8 3:56:40.2 +23:23.5
4 224 Robin Gunloch 6/8 3:56:40.5 +23:23.9

Open Men 21kw 21 km. Mass Start    
PL Bib Name Overall Time Diff
1 219 Trevor  Steigenberger 1/8 3:33:16.0  

Masters Women 21kw 21 km. Mass Start    
PL Bib Name Overall Time Diff
1 226 Landra Blanchette 3/8 3:34:01.1  
2 222 Gwen Beach 7/8 4:18:49.9 +44:48.8
3 223 Sandy Bennion 8/8 4:18:50.1 +44:49.0

JrH (g7-9) Girl 21kw 21 km. Mass Start    
PL Bib Name Overall Time Diff

JrH (g7-9) Boy 21kw 21 km. Mass Start    
PL Bib Name Overall Time Diff

SrH (10-12) Boy 21kw 21 km. Mass Start    
PL Bib Name Overall Time Diff

SrH (10-12) Girl 21w 21 km. Mass Start    
PL Bib Name Overall Time Diff

OBW Women 21kw 21 km. Mass Start    
PL Bib Name Overall Time Diff

OBW Men 21kw 21 km. Mass Start    
PL Bib Name Overall Time Diff

Open Men 21kr 21 km. Mass Start    
PL Bib Name Overall Time Diff
1 252 Landon Dunbar 3/29 1:31:54.6  
2 245 Michael Jones 5/29 1:41:16.4 +9:21.7
3 235 Troy Bogh 7/29 1:47:23.4 +15:28.7
4 249 Julian bolinger 8/29 1:51:34.4 +19:39.7
5 240 Adam Labrecque 10/29 1:57:08.7 +25:14.0
6 246 Jeremy  Liberman 14/29 1:58:16.3 +26:21.7
7 257 Brett Dewey 15/29 2:00:56.5 +29:01.9
8 258 Alexander Glenn 16/29 2:02:35.4 +30:40.7
9 237 Jason Schembri 20/29 2:26:03.5 +54:08.9
10 232 Kenneth Livingston 22/29 2:33:45.8 +1:01:51.1

Open Women 21kr 21 km. Mass Start    
PL Bib Name Overall Time Diff
1 228 Paola  Aedo Martinez 9/29 1:52:20.6  
2 253 susan klassen 13/29 1:58:13.8 +5:53.1
3 251 Alison L'Heureaux 17/29 2:07:07.5 +14:46.8
4 229 Dawn Kuz 21/29 2:32:07.2 +39:46.5
5 250 Amanda Eisler 26/29 2:53:02.9 +1:00:42.3
6 243 Jamie Ritchie 27/29 2:53:03.3 +1:00:42.6
7 227 Amber Livingston 28/29 3:07:22.9 +1:15:02.3
8 242 Lauren Smith 29/29 3:07:23.9 +1:15:03.3
DNS 234 Jennifer Keay * *** ***
DNS 236 Nikki Elford * *** ***

ACAC Men 21kr 21 km. Mass Start    
PL Bib Name Overall Time Diff
1 247 Dylan Zambonelli 4/29 1:40:08.1  

ACAC Women 21kr 21 km. Mass Start    
PL Bib Name Overall Time Diff

Masters Women 21kr 21 km. Mass Start    
PL Bib Name Overall Time Diff
1 241 Lisa Lauzon 12/29 1:58:13.2  
2 254 Annamari Miles 18/29 2:07:58.7 +9:45.5
3 239 Terri Webber 24/29 2:35:57.1 +37:43.9

Masters Men 21kr 21 km. Mass Start    
PL Bib Name Overall Time Diff
1 231 Cody Boake 1/29 1:31:51.8  
2 233 Scott Goosney 2/29 1:31:52.1 +0.3
3 255 Drake Houssian 6/29 1:42:48.2 +10:56.3
4 256 Michael Amirault 11/29 1:57:14.8 +25:23.0
5 238 Paul Mah 23/29 2:34:49.8 +1:02:58.0
6 248 Reid Glenn 25/29 2:47:06.5 +1:15:14.6
DNF 244 Kenny Lavalle * *** ***

OBW Men 21 kr 21 km. Mass Start    
PL Bib Name Overall Time Diff
1 230 Ron Loutitt 19/29 2:12:28.0  

OBW Women 21 kr 21 km. Mass Start    
PL Bib Name Overall Time Diff

SrH (10-12) Boy 21kr 21 km. Mass Start    
PL Bib Name Overall Time Diff

SrH (10-12) Girl 21r 21 km. Mass Start    
PL Bib Name Overall Time Diff

OBW Women 10kw 10 km. Mass Start    
PL Bib Name Overall Time Diff
1 270 Karen Fimrite 4/13 1:22:56.7  
2 266 Judy Boake 6/13 1:29:14.5 +6:17.8

SrH (10-12) Girl 10w 10 km. Mass Start    
PL Bib Name Overall Time Diff

Masters Men 10kw 10 km. Mass Start    
PL Bib Name Overall Time Diff
1 272 Andre Boulet 2/13 1:16:12.3  

SrH (10-12) Boy 10w 10 km. Mass Start    
PL Bib Name Overall Time Diff

JrH (g7-9) Boy 10w 10 km. Mass Start    
PL Bib Name Overall Time Diff

Masters Women 10kw 10 km. Mass Start    
PL Bib Name Overall Time Diff
1 271 Roberta Boulet 5/13 1:25:27.8  
2 369 Karen Ellingson 7/13 1:29:16.4 +3:48.5
3 269 Stacy Stang 8/13 1:31:13.5 +5:45.6
4 259 Veronica Hallock 13/13 1:48:20.0 +22:52.2

Open Men 10kw 10 km. Mass Start    
PL Bib Name Overall Time Diff
1 273 Geoffrey Boulet 1/13 1:15:46.0  
2 275 Charles  King  10/13 1:37:40.7 +21:54.7

Open Women 10kw 10 km. Mass Start    
PL Bib Name Overall Time Diff
1 274 Jessica Lang 3/13 1:22:55.9  
2 265 Nadine  King  9/13 1:37:40.4 +14:44.5
3 260 Cindy Hingley 11/13 1:39:20.8 +16:24.8
4 264 Kendra Hare 12/13 1:48:19.3 +25:23.4
5 267 Sherida Nicholson * *** ***
DNS 261 Anne McLaughlin * *** ***

OBW Men 10kw 10 km. Mass Start    
PL Bib Name Overall Time Diff

JrH (g7-9) Girl 10w 10 km. Mass Start    
PL Bib Name Overall Time Diff

JrH (g7-9) Girl 10kr 10 km. Mass Start    
PL Bib Name Overall Time Diff
1 361 Lori Stoby 51/61 1:17:25.9  

Open Men 10kr 10 km. Mass Start    
PL Bib Name Overall Time Diff
1 298 Yves Lavoie 5/61 0:52:53.1  
2 286 Thomas Bolinger 6/61 0:52:57.0 +3.9
3 319 Donald Meurs 7/61 0:53:39.6 +46.5
4 290 Henry Hartman 12/61 0:55:05.6 +2:12.5
5 304 Joe  Somerville 34/61 1:07:17.7 +14:24.6
6 280 Ralph Morris 46/61 1:14:19.2 +21:26.0
DNS 307 James  Campbell * *** ***

Open Women 10kr 10 km. Mass Start    
PL Bib Name Overall Time Diff
1 262 Rowena Beattie 2/61 0:48:59.9  
2 285 Taniya Birbeck 3/61 0:50:38.3 +1:38.4
3 296 Dallas Deditch 4/61 0:51:54.3 +2:54.4
4 309 Jackie  Benning 8/61 0:53:40.1 +4:40.1
5 331 Stephanie Wiebe 9/61 0:53:53.2 +4:53.3
6 328 Kristina Tinworth 10/61 0:53:56.7 +4:56.8
7 330 Margo Steele 11/61 0:54:25.8 +5:25.8
8 276 Julie Gummesen 14/61 0:56:09.2 +7:09.3
9 327 Krista  Wilson 16/61 0:57:49.0 +8:49.1
10 329 Kylee Lehr 19/61 0:58:39.7 +9:39.7
11 310 Lisa Elford 21/61 0:59:58.6 +10:58.7
12 282 Mandy Van Dresar 22/61 1:00:01.0 +11:01.1
13 332 Sydney Spencer 24/61 1:00:06.2 +11:06.2
14 306 Tarynne  Bowen 28/61 1:00:25.6 +11:25.7
15 308 Amanda  Campbell 29/61 1:01:21.0 +12:21.1
16 299 Alison Benke 30/61 1:03:15.8 +14:15.8
17 284 Tiffany Curl 35/61 1:07:30.2 +18:30.2
18 263 Kaitlyn Lukoni 40/61 1:10:15.5 +21:15.5
19 313 Lindsay Tennant 41/61 1:10:26.7 +21:26.7
20 294 Kerry Silver 42/61 1:10:28.8 +21:28.9
21 278 Amanda Kemp 43/61 1:11:08.9 +22:09.0
22 322 Karen Benrot 48/61 1:15:55.8 +26:55.9
23 289 Lora Casselman 49/61 1:16:19.4 +27:19.5
24 300 Danica Norman 53/61 1:19:02.3 +30:02.4
25 279 Lacey Jackson 55/61 1:24:18.1 +35:18.1

Masters Men 10kr 10 km. Mass Start    
PL Bib Name Overall Time Diff
1 291 Garry Ropchan 15/61 0:56:32.7  
2 318 John Schumacher 17/61 0:58:12.6 +1:39.9
3 333 Mark  Evans 23/61 1:00:02.5 +3:29.8
4 283 Bruce Galenza 25/61 1:00:15.8 +3:43.0
5 295 Liam McCracken 26/61 1:00:22.9 +3:50.1
6 305 Pax Redding 27/61 1:00:23.4 +3:50.6
7 325 Larry Lowen 31/61 1:04:11.6 +7:38.8

SrH (10-12) Boy 10kr 10 km. Mass Start    
PL Bib Name Overall Time Diff
1 323 John Davis 1/61 0:48:08.9  

Masters Women 10kr 10 km. Mass Start    
PL Bib Name Overall Time Diff
1 316 Alison Klassen 18/61 0:58:24.9  
2 324 Rhonda Radench 33/61 1:05:03.5 +6:38.6
3 311 Laurie Lyle 36/61 1:07:41.5 +9:16.6
4 312 Elizabeth Lodge 37/61 1:09:39.3 +11:14.3
5 315 Bonnie Barber 38/61 1:09:53.3 +11:28.3
6 293 Shawna Miller 39/61 1:10:05.6 +11:40.7
7 301 Tanya Oppedisano 44/61 1:11:21.0 +12:56.1
8 281 Karieann Brinson 45/61 1:11:52.3 +13:27.3
9 334 JoAnn  Cazakoff 47/61 1:15:17.8 +16:52.8
10 303 Liann Hvamb 50/61 1:16:27.8 +18:02.9
11 321 Angela Redding 52/61 1:17:32.4 +19:07.5
12 292 Tara Pearson 54/61 1:23:35.2 +25:10.2
13 277 Lisa Houle 56/61 1:24:21.9 +25:57.0
14 320 Diane Goodwin 57/61 1:24:22.4 +25:57.5
15 314 Cheryl McKenzie 58/61 1:27:58.8 +29:33.9
16 326 Joy  Lowen 59/61 1:29:12.7 +30:47.7
17 288 Wendy Camplair 60/61 1:29:13.1 +30:48.2
18 268 Sandra Ross 61/61 1:47:30.1 +49:05.1
DNS 302 Tina Dodwell * *** ***

ACAC Men 10kr 10 km. Mass Start    
PL Bib Name Overall Time Diff

ACAC Women 10kr 10 km. Mass Start    
PL Bib Name Overall Time Diff

JrH (g7-9) Boy 10kr 10 km. Mass Start    
PL Bib Name Overall Time Diff
1 297 Kale Salacki 13/61 0:55:18.7  
2 317 Seth Ball 32/61 1:04:45.9 +9:27.2

OBW Men 10kr 10 km. Mass Start    
PL Bib Name Overall Time Diff

OBW Women 10kr 10 km. Mass Start    
PL Bib Name Overall Time Diff

SrH (10-12) Girl 10k 10 km. Mass Start    
PL Bib Name Overall Time Diff
1 287 Kailey Bratland 20/61 0:59:34.6  

SrH (g10-12) Boy 3k 3 km. Mass Start    
PL Bib Name Overall Time Diff
1 341 Zachary Malmsten 1/32 0:11:59.6  
2 337 Mathieu Davis 3/32 0:12:32.1 +32.5
3 351 Joshua Malmsten 4/32 0:12:45.4 +45.7
4 359 Patrick Davis 6/32 0:13:09.6 +1:10.0
5 354 Mark Ambros 17/32 0:16:55.2 +4:55.6
DNS 350 Randy Tollenaar * *** ***

Gr 3 - 6 Girl 3k 3 km. Mass Start    
PL Bib Name Overall Time Diff
1 348 Hannah Lundstrom 7/32 0:13:29.3  
2 335 Makena Pruden 12/32 0:15:14.9 +1:45.5
3 343 Ella Pruden 22/32 0:18:22.5 +4:53.1
4 366 Lara Ball 23/32 0:18:23.0 +4:53.6
5 346 Jadyn Anderson 24/32 0:19:41.1 +6:11.8
6 367 Abbigayle Redding 28/32 0:22:58.0 +9:28.7
7 360 Miranda Hopkins 29/32 0:23:32.9 +10:03.6
8 356 Billie Fitch 30/32 0:23:36.6 +10:07.2

SrH (g10-12) Girl 3k 3 km. Mass Start    
PL Bib Name Overall Time Diff
1 352 Megan Hopkins 14/32 0:15:36.7  

JrH (g7-9) Boy 3k 3 km. Mass Start    
PL Bib Name Overall Time Diff
1 347 Jordan Lundstrom 2/32 0:12:03.7  
2 345 RJ Chmelyk 10/32 0:14:02.6 +1:58.9
3 340 Alexander Malmsten 13/32 0:15:33.9 +3:30.1
4 362 Josh Van Braeden 15/32 0:16:54.5 +4:50.8
5 339 Ben Kons 21/32 0:18:17.5 +6:13.8
6 368 Marcus Hopkins 26/32 0:22:55.4 +10:51.7

JrH (g7-9) Girl 3k 3 km. Mass Start    
PL Bib Name Overall Time Diff
1 342 Emilie Davis 8/32 0:13:32.5  
2 349 Anna van der Giessen 9/32 0:14:01.0 +28.5
3 358 Macey Shanks 16/32 0:16:54.8 +3:22.3
4 363 Maya Bradshaw 18/32 0:16:55.5 +3:23.0
5 355 Erika Buller-Taylor 19/32 0:16:55.8 +3:23.3
6 365 Veronica Chrenek 20/32 0:17:49.0 +4:16.5
7 364 Nicole Chrenek 25/32 0:20:17.1 +6:44.6
8 344 Kaydence Redding 27/32 0:22:57.2 +9:24.7

Gr 3 - 6 Boy 3k 3 km. Mass Start    
PL Bib Name Overall Time Diff
1 338 dario staples 5/32 0:12:46.7  
2 353 Ian Stoby 11/32 0:14:28.2 +1:41.5
3 357 Skyler Fitch 31/32 0:24:47.9 +12:01.2
4 336 Kade Shaw 32/32 0:25:06.7 +12:20.0

Run with your kid 3 km. Mass Start    
PL Bib Name Overall Time Diff


Results are posted through an automated system by licenced clubs. For inquires about result corrections please contact the race organizer.

Copyright 2018 - Zone4 Systems zone4.ca       Privacy Policy     Delivery/Refund Policy     Terms of Service    Contact Zone4